Time;durP1;ratioP1;P1;durP2;ratioP2;P2;SDS_P1;SDS_P2;PMS_P1;PMS_P2;Temp;Humidity;BMP_temperature;BMP_pressure;BME280_temperature;BME280_humidity;BME280_pressure;Samples;Min_cycle;Max_cycle;Signal;HPM_P1;HPM_P2
2022/07/05 00:01:08;;;;;;;32.00;29.88;;;;;;;21.69;100.00;100963.47;6040727;23;20130;-80
2022/07/05 00:03:36;;;;;;;34.15;31.90;;;;;;;21.82;100.00;100972.91;6041675;23;20059;-81
2022/07/05 00:06:03;;;;;;;34.17;31.83;;;;;;;22.18;100.00;100965.50;6041305;23;20471;-81
2022/07/05 00:08:31;;;;;;;37.70;35.42;;;;;;;22.23;100.00;100966.56;6041923;23;20027;-82
2022/07/05 00:10:58;;;;;;;36.47;34.28;;;;;;;21.92;100.00;100961.25;6041512;23;20436;-82
2022/07/05 00:13:26;;;;;;;36.05;34.10;;;;;;;21.63;100.00;100961.03;6041322;23;20031;-81
2022/07/05 00:15:54;;;;;;;35.75;33.47;;;;;;;21.78;100.00;100960.19;6041390;23;20024;-80
2022/07/05 00:18:21;;;;;;;30.80;28.85;;;;;;;22.31;100.00;100953.25;6041621;23;20483;-81
2022/07/05 00:20:48;;;;;;;28.48;26.65;;;;;;;22.16;100.00;100956.84;6041127;23;20027;-82
2022/07/05 00:23:16;;;;;;;31.70;30.00;;;;;;;22.26;100.00;100950.56;6040625;23;20415;-82
2022/07/05 00:25:44;;;;;;;31.30;29.38;;;;;;;22.37;100.00;100944.03;6041092;23;20103;-81
2022/07/05 00:28:12;;;;;;;32.88;30.77;;;;;;;22.48;100.00;100941.25;6040823;23;20106;-81
2022/07/05 00:30:39;;;;;;;33.88;31.52;;;;;;;22.40;100.00;100942.66;6041360;23;20031;-81
2022/07/05 00:33:08;;;;;;;33.72;31.73;;;;;;;22.36;100.00;100949.69;6041373;23;20026;-81
2022/07/05 00:35:35;;;;;;;32.03;30.00;;;;;;;22.46;100.00;100940.75;6041049;23;20441;-82
2022/07/05 00:38:01;;;;;;;38.17;36.08;;;;;;;22.40;100.00;100939.94;6041349;23;20031;-82
2022/07/05 00:40:28;;;;;;;31.83;30.02;;;;;;;22.41;100.00;100938.84;6041092;23;20023;-81
2022/07/05 00:43:01;;;;;;;28.35;26.42;;;;;;;22.39;100.00;100932.91;6041575;23;20034;-82
2022/07/05 00:45:30;;;;;;;26.45;24.75;;;;;;;22.33;100.00;100934.03;6041049;23;20326;-82
2022/07/05 00:47:57;;;;;;;43.00;40.60;;;;;;;22.35;100.00;100927.25;6041213;23;20030;-81
2022/07/05 00:50:25;;;;;;;30.30;28.27;;;;;;;22.37;100.00;100933.19;6040599;23;20027;-82
2022/07/05 00:52:55;;;;;;;33.67;31.38;;;;;;;22.30;100.00;100932.72;6040498;23;20027;-82
2022/07/05 00:55:22;;;;;;;30.77;28.77;;;;;;;22.31;100.00;100922.69;6040088;23;20532;-82
2022/07/05 00:57:50;;;;;;;32.78;30.77;;;;;;;22.26;100.00;100918.09;6041059;23;20027;-82
2022/07/05 01:00:19;;;;;;;28.20;26.25;;;;;;;22.27;100.00;100914.34;6040859;23;20019;-81
2022/07/05 01:02:46;;;;;;;29.60;27.60;;;;;;;21.63;100.00;100913.19;6040957;23;20066;-82
2022/07/05 01:05:14;;;;;;;29.17;27.05;;;;;;;21.94;100.00;100911.22;6041576;23;20023;-81
2022/07/05 01:07:42;;;;;;;27.63;26.02;;;;;;;21.90;100.00;100912.81;6041509;23;20410;-82
2022/07/05 01:10:10;;;;;;;26.50;24.90;;;;;;;22.19;100.00;100912.19;6041182;23;20027;-81
2022/07/05 01:12:40;;;;;;;29.38;27.77;;;;;;;22.11;100.00;100913.53;6041238;23;20042;-81
2022/07/05 01:15:08;;;;;;;27.50;25.83;;;;;;;21.43;100.00;100911.38;6040654;23;20023;-81
2022/07/05 01:17:37;;;;;;;26.75;25.15;;;;;;;21.48;100.00;100911.38;6040829;23;20310;-81
2022/07/05 01:20:07;;;;;;;26.88;24.90;;;;;;;21.10;100.00;100911.94;6040966;23;20069;-82
2022/07/05 01:22:52;;;;;;;25.08;23.30;;;;;;;21.38;100.00;100914.06;6040506;23;20047;-81
2022/07/05 01:25:21;;;;;;;25.75;24.25;;;;;;;21.21;100.00;100913.53;6040621;23;20024;-83
2022/07/05 01:27:54;;;;;;;29.55;27.92;;;;;;;21.08;100.00;100914.91;6041332;23;20019;-81
2022/07/05 01:30:21;;;;;;;27.48;25.77;;;;;;;21.02;100.00;100914.09;6040424;23;20019;-81
2022/07/05 01:32:49;;;;;;;35.40;33.40;;;;;;;21.23;100.00;100911.38;6040615;23;20023;-81
2022/07/05 01:35:20;;;;;;;43.53;41.22;;;;;;;21.26;100.00;100908.94;6040926;23;20023;-81
2022/07/05 01:37:51;;;;;;;37.38;35.38;;;;;;;21.71;100.00;100914.53;6040759;23;20333;-81
2022/07/05 01:40:20;;;;;;;34.83;32.70;;;;;;;21.80;100.00;100918.28;6040734;23;20038;-81
2022/07/05 01:42:48;;;;;;;29.65;27.73;;;;;;;21.59;100.00;100916.75;6040647;23;20019;-82
2022/07/05 01:45:38;;;;;;;38.88;36.85;;;;;;;21.65;100.00;100918.34;6040865;23;20023;-82
2022/07/05 01:48:03;;;;;;;34.35;32.55;;;;;;;21.29;100.00;100918.38;6040310;23;20023;-81
2022/07/05 01:50:37;;;;;;;31.88;30.27;;;;;;;21.11;100.00;100921.66;6040774;23;20019;-81
2022/07/05 01:53:09;;;;;;;40.20;38.13;;;;;;;20.92;100.00;100927.59;6040324;23;20476;-81
2022/07/05 01:55:37;;;;;;;;;;;;;;;20.86;100.00;100927.88;6041145;23;20110;-81
2022/07/05 01:58:04;;;;;;;28.90;27.20;;;;;;;21.03;100.00;100926.53;6040624;23;19977;-81
2022/07/05 15:19:02;;;;;;;37.20;34.50;;;;;;;33.98;37.83;100656.81;6047413;23;20051;-92
2022/07/05 15:21:29;;;;;;;35.53;32.72;;;;;;;33.85;38.24;100660.88;6066966;23;20027;-93
2022/07/05 15:23:58;;;;;;;37.60;34.33;;;;;;;33.91;37.76;100672.41;6065997;23;20078;-93
2022/07/05 15:26:25;;;;;;;34.70;31.85;;;;;;;33.54;39.84;100672.88;6066458;23;20034;-95
2022/07/05 15:28:52;;;;;;;31.33;28.83;;;;;;;33.73;38.69;100661.84;6067536;23;20014;-93
2022/07/05 15:31:19;;;;;;;30.20;27.02;;;;;;;33.63;39.59;100658.91;6039403;23;20014;-93
2022/07/05 15:33:45;;;;;;;28.90;26.60;;;;;;;33.54;42.37;100666.59;6069051;23;20031;-93
2022/07/05 15:36:14;;;;;;;34.55;31.90;;;;;;;33.61;39.76;100673.00;5997357;23;20016;-93
2022/07/05 15:38:41;;;;;;;29.98;26.98;;;;;;;33.67;39.28;100671.56;6067394;23;20027;-92
2022/07/05 15:41:08;;;;;;;32.50;29.80;;;;;;;33.49;39.41;100673.13;6068254;23;20027;-92
2022/07/05 15:43:35;;;;;;;33.08;30.63;;;;;;;33.47;39.42;100667.22;6066438;23;20031;-91
2022/07/05 15:46:04;;;;;;;32.80;30.17;;;;;;;33.05;40.69;100676.94;6061529;23;20046;-92
2022/07/05 15:48:31;;;;;;;34.22;31.33;;;;;;;32.96;40.72;100675.53;6050056;23;20011;-92
2022/07/05 15:51:00;;;;;;;32.40;29.65;;;;;;;32.94;40.68;100675.88;6068010;23;20019;-92
2022/07/05 15:53:30;;;;;;;35.92;33.05;;;;;;;32.94;41.02;100680.59;6068262;23;20026;-93
2022/07/05 15:56:01;;;;;;;31.77;29.20;;;;;;;32.81;40.91;100672.47;6067372;23;20075;-93
2022/07/05 15:58:28;;;;;;;32.00;29.13;;;;;;;32.63;41.82;100678.69;6067073;23;20027;-91
2022/07/05 16:00:56;;;;;;;32.53;29.88;;;;;;;32.69;42.10;100683.56;6067772;23;20014;-92
2022/07/05 16:03:24;;;;;;;31.33;28.80;;;;;;;32.78;42.44;100680.63;6068308;23;20048;-92
2022/07/05 16:05:52;;;;;;;34.65;31.80;;;;;;;32.94;41.91;100675.88;6066906;23;20010;-91
2022/07/05 16:08:19;;;;;;;31.30;28.77;;;;;;;32.43;42.39;100677.78;6067933;23;20051;-92
2022/07/05 16:10:48;;;;;;;34.50;31.60;;;;;;;32.29;42.67;100676.28;6068060;23;20023;-93
2022/07/05 16:13:17;;;;;;;33.38;30.88;;;;;;;32.53;42.02;100666.28;6067854;23;20030;-92
2022/07/05 16:18:31;;;;;;;36.42;33.45;;;;;;;32.31;43.71;100673.16;6068182;23;20042;-93
2022/07/05 16:21:01;;;;;;;32.88;29.92;;;;;;;32.33;42.74;100676.38;6067836;23;20003;-93
2022/07/05 16:23:29;;;;;;;35.42;32.88;;;;;;;32.13;48.21;100662.53;6066822;23;20035;-92
2022/07/05 16:25:59;;;;;;;38.03;34.67;;;;;;;32.20;43.88;100661.13;6064894;23;20023;-91
2022/07/05 16:28:31;;;;;;;29.58;26.98;;;;;;;32.09;44.25;100658.09;6065660;23;20075;-92
2022/07/05 16:31:02;;;;;;;;;;;;;;;32.02;44.28;100664.22;6061043;23;20032;-91
2022/07/05 16:33:31;;;;;;;33.75;30.83;;;;;;;31.97;43.78;100678.19;6065639;23;19902;-94
2022/07/05 16:36:03;;;;;;;31.60;29.20;;;;;;;31.86;44.68;100675.16;6061852;23;20038;-92
2022/07/05 16:41:16;;;;;;;32.13;29.00;;;;;;;31.68;45.09;100671.09;6046379;23;20498;-92
2022/07/05 16:43:44;;;;;;;33.95;31.23;;;;;;;31.58;45.26;100682.59;6059931;23;20027;-92
2022/07/05 16:46:14;;;;;;;34.55;32.00;;;;;;;31.52;44.94;100673.78;6062120;23;20046;-92
2022/07/05 16:48:43;;;;;;;33.20;30.30;;;;;;;31.42;45.40;100679.78;6061780;23;20020;-93
2022/07/05 16:51:14;;;;;;;33.63;30.73;;;;;;;31.39;45.62;100684.03;6063694;23;20019;-91
2022/07/05 16:53:43;;;;;;;33.88;31.35;;;;;;;31.85;45.00;100687.25;6066234;23;20045;-94
2022/07/05 16:56:13;;;;;;;38.58;35.28;;;;;;;31.27;45.88;100684.03;6060105;23;20027;-94
2022/07/05 16:58:49;;;;;;;36.10;33.20;;;;;;;31.14;46.54;100686.00;6056813;23;20061;-91
2022/07/05 17:01:17;;;;;;;32.53;29.52;;;;;;;31.07;47.58;100690.47;6060757;23;20035;-92
2022/07/05 17:03:50;;;;;;;31.10;28.63;;;;;;;31.02;48.86;100689.56;6067388;23;20019;-93
2022/07/05 17:06:17;;;;;;;30.45;27.92;;;;;;;30.97;48.04;100689.00;6067567;23;20007;-92
2022/07/05 17:08:48;;;;;;;29.15;26.63;;;;;;;30.88;48.12;100691.06;6067768;23;20027;-94
2022/07/05 17:11:19;;;;;;;35.83;33.05;;;;;;;30.85;48.19;100703.50;6067540;23;20007;-93
2022/07/05 17:13:51;;;;;;;29.93;27.60;;;;;;;30.64;50.35;100702.78;6061717;23;20046;-92
2022/07/05 17:16:18;;;;;;;30.17;27.27;;;;;;;30.62;54.29;100696.84;6066143;23;20035;-93
2022/07/05 17:18:47;;;;;;;30.75;28.23;;;;;;;30.58;50.40;100703.00;6064950;23;20034;-94
2022/07/05 17:21:17;;;;;;;31.02;28.60;;;;;;;30.61;51.14;100704.28;6065711;23;20066;-94
2022/07/05 17:23:46;;;;;;;29.77;27.35;;;;;;;30.63;54.45;100706.69;6064561;23;20007;-93
2022/07/05 17:26:21;;;;;;;30.25;27.65;;;;;;;30.46;51.15;100697.53;6065304;23;20035;-94
2022/07/05 17:28:54;;;;;;;30.20;27.83;;;;;;;30.38;50.82;100697.63;6066551;23;20027;-95
2022/07/05 17:31:21;;;;;;;30.75;28.15;;;;;;;30.44;50.69;100702.56;6067025;23;20011;-93
2022/07/05 17:33:50;;;;;;;31.02;28.33;;;;;;;30.49;51.65;100693.31;6067217;23;20031;-94
2022/07/05 17:36:21;;;;;;;31.58;29.10;;;;;;;30.31;51.21;100695.44;6067019;23;20023;-94
2022/07/05 17:38:50;;;;;;;29.50;27.30;;;;;;;29.95;53.04;100696.13;6066892;23;20084;-94
2022/07/05 17:41:24;;;;;;;29.30;27.00;;;;;;;29.98;53.88;100695.44;6067086;23;20079;-93
2022/07/05 17:43:51;;;;;;;33.97;30.88;;;;;;;29.95;54.56;100696.91;6066605;23;20043;-92
2022/07/05 17:46:24;;;;;;;32.50;29.95;;;;;;;29.88;54.63;100702.16;6065283;23;20031;-93
2022/07/05 17:48:57;;;;;;;33.60;30.48;;;;;;;29.88;55.19;100704.88;6066774;23;20011;-94
2022/07/05 17:51:30;;;;;;;35.90;32.75;;;;;;;29.53;56.85;100704.34;6067127;23;20020;-93
2022/07/05 17:53:56;;;;;;;;;;;;;;;29.48;56.31;100716.31;6067626;23;20048;-93
2022/07/05 17:56:25;;;;;;;42.63;39.22;;;;;;;29.43;57.04;100702.81;6067224;23;19926;-93
2022/07/05 17:58:52;;;;;;;41.55;38.47;;;;;;;29.42;57.54;100706.69;6066114;23;20034;-93
2022/07/05 18:01:19;;;;;;;35.05;32.22;;;;;;;29.32;57.60;100690.66;6066113;23;20559;-94
2022/07/05 18:03:49;;;;;;;33.67;31.27;;;;;;;29.28;57.70;100696.00;6067174;23;20004;-93
2022/07/05 18:06:17;;;;;;;39.78;36.22;;;;;;;29.36;58.09;100689.69;6065739;23;20008;-93
2022/07/05 18:08:44;;;;;;;42.83;39.78;;;;;;;29.36;57.74;100697.09;6066714;23;20007;-94
2022/07/05 18:11:12;;;;;;;51.63;48.58;;;;;;;29.25;58.38;100693.94;6066606;23;20026;-93
2022/07/05 18:13:44;;;;;;;36.03;33.50;;;;;;;29.21;58.46;100706.69;6066515;23;20055;-94
2022/07/05 18:16:11;;;;;;;38.35;35.60;;;;;;;29.07;58.72;100700.66;6065408;23;20035;-94
2022/07/05 18:18:38;;;;;;;37.03;34.42;;;;;;;28.99;59.60;100700.34;6065979;23;20034;-93
2022/07/05 18:21:05;;;;;;;35.35;32.83;;;;;;;28.87;59.66;100694.00;6066195;23;20553;-93
2022/07/05 18:23:34;;;;;;;31.35;28.88;;;;;;;28.97;59.40;100697.16;6065181;23;20019;-93
2022/07/05 18:26:01;;;;;;;35.05;32.45;;;;;;;28.82;60.78;100696.91;6065232;23;20007;-93
2022/07/05 18:28:27;;;;;;;33.08;30.25;;;;;;;28.72;61.22;100703.56;6065834;23;20015;-93
2022/07/05 18:30:56;;;;;;;36.00;32.60;;;;;;;28.64;62.15;100696.19;6065827;23;20015;-93
2022/07/05 18:33:23;;;;;;;30.55;27.73;;;;;;;28.58;62.89;100695.56;6066074;23;20019;-93
2022/07/05 18:35:50;;;;;;;29.17;26.48;;;;;;;28.52;62.80;100685.97;6065843;23;20023;-93
2022/07/05 18:38:17;;;;;;;40.55;37.45;;;;;;;28.52;63.09;100692.22;6066646;23;20027;-94
2022/07/05 18:40:44;;;;;;;37.85;34.65;;;;;;;28.36;63.67;100699.31;6066640;23;20015;-93
2022/07/05 18:43:11;;;;;;;34.38;31.30;;;;;;;28.45;63.99;100700.13;6066950;23;20059;-94
2022/07/05 18:45:43;;;;;;;36.58;33.30;;;;;;;28.46;63.62;100707.19;6066001;23;20032;-92
2022/07/05 18:48:13;;;;;;;37.58;34.97;;;;;;;28.49;64.78;100720.19;6066950;23;20042;-93
2022/07/05 18:50:45;;;;;;;37.13;33.97;;;;;;;28.42;65.89;100711.72;6066528;23;20012;-93
2022/07/05 18:53:21;;;;;;;33.63;30.73;;;;;;;28.51;67.28;100707.00;6066877;23;20044;-93
2022/07/05 18:55:50;;;;;;;31.73;28.88;;;;;;;28.30;70.57;100700.63;6066296;23;20027;-93
2022/07/05 18:58:18;;;;;;;30.65;27.80;;;;;;;28.22;69.79;100704.97;6064840;23;20019;-94
2022/07/05 19:00:50;;;;;;;33.33;30.38;;;;;;;27.72;74.38;100710.16;6064517;23;20007;-93
2022/07/05 19:03:22;;;;;;;;;;;;;;;27.71;76.58;100722.19;6067043;23;20034;-94
2022/07/05 19:14:08;;;;;;;27.65;25.20;;;;;;;27.26;87.23;100730.66;6065708;23;20019;-95
2022/07/05 19:16:35;;;;;;;28.40;26.00;;;;;;;27.24;89.06;100719.28;6065006;23;20027;-93
2022/07/05 19:19:05;;;;;;;28.05;25.70;;;;;;;27.15;91.18;100727.44;6057284;23;20024;-93
2022/07/05 19:21:35;;;;;;;28.33;25.88;;;;;;;27.11;96.28;100723.69;6042901;23;20020;-92
2022/07/05 19:24:02;;;;;;;27.70;25.20;;;;;;;27.09;94.25;100720.50;6044462;23;20030;-91
2022/07/05 19:26:34;;;;;;;27.17;24.90;;;;;;;27.02;96.81;100710.06;6041640;23;20039;-93
2022/07/05 19:29:01;;;;;;;26.95;24.45;;;;;;;26.90;99.20;100721.56;6041925;23;20521;-92
2022/07/05 19:31:30;;;;;;;26.23;24.00;;;;;;;27.02;99.04;100725.59;6040800;23;20024;-91
2022/07/05 19:33:57;;;;;;;27.55;25.50;;;;;;;26.89;100.00;100728.13;6040856;23;20042;-91
2022/07/05 19:36:28;;;;;;;26.23;23.70;;;;;;;26.80;100.00;100718.31;6043442;23;20060;-90
2022/07/05 19:38:58;;;;;;;32.30;29.75;;;;;;;26.72;100.00;100715.25;6045190;23;20039;-91
2022/07/05 19:41:25;;;;;;;28.80;26.60;;;;;;;26.76;100.00;100728.25;6041086;23;20473;-90
2022/07/05 19:43:52;;;;;;;26.38;24.27;;;;;;;26.69;100.00;100726.78;6040879;23;20087;-92
2022/07/05 19:46:19;;;;;;;29.75;27.45;;;;;;;26.59;100.00;100718.06;6043431;23;20015;-91
2022/07/05 19:48:57;;;;;;;28.60;26.33;;;;;;;26.72;100.00;100722.63;6041860;23;20119;-91
2022/07/05 19:51:28;;;;;;;25.70;23.60;;;;;;;26.58;100.00;100719.19;6041716;23;20026;-90
2022/07/05 19:56:49;;;;;;;26.50;24.48;;;;;;;26.58;100.00;100719.19;6044123;23;20027;-92
2022/07/05 19:59:21;;;;;;;26.65;24.55;;;;;;;26.56;100.00;100716.75;6042738;23;20019;-92
2022/07/05 20:01:55;;;;;;;26.42;24.15;;;;;;;26.31;100.00;100728.28;6042644;23;20414;-92
2022/07/05 20:04:26;;;;;;;29.00;26.48;;;;;;;26.31;100.00;100720.13;6046439;23;20130;-92
2022/07/05 20:06:58;;;;;;;28.27;25.92;;;;;;;26.34;100.00;100731.19;6048171;23;20023;-92
2022/07/05 20:09:25;;;;;;;;;;;;;;;26.21;100.00;100718.47;6051670;23;20390;-92
2022/07/05 20:12:02;;;;;;;26.85;24.88;;;;;;;26.32;100.00;100722.53;6048801;23;19922;-92
2022/07/05 20:14:37;;;;;;;30.75;28.52;;;;;;;26.37;100.00;100719.69;6047136;23;20015;-93
2022/07/05 20:17:05;;;;;;;34.00;31.50;;;;;;;26.19;100.00;100710.59;6044266;23;20023;-92
2022/07/05 20:19:39;;;;;;;35.25;32.95;;;;;;;26.06;100.00;100725.09;6046169;23;20026;-91
2022/07/05 20:22:30;;;;;;;24.75;22.10;;;;;;;26.00;100.00;100720.91;6047627;23;20083;-93
2022/07/05 20:24:58;;;;;;;28.50;26.40;;;;;;;25.93;100.00;100715.91;6044762;23;20055;-92
2022/07/05 20:27:27;;;;;;;26.13;24.13;;;;;;;25.82;100.00;100722.69;6045972;23;20027;-93
2022/07/05 20:29:53;;;;;;;33.15;31.02;;;;;;;25.86;100.00;100723.66;6050762;23;20023;-92
2022/07/05 20:32:20;;;;;;;25.65;23.65;;;;;;;25.66;100.00;100724.94;6051255;23;20074;-93
2022/07/05 20:34:47;;;;;;;27.38;25.08;;;;;;;25.57;100.00;100724.06;6053164;23;20023;-92
2022/07/05 20:37:18;;;;;;;28.02;26.02;;;;;;;25.69;100.00;100731.66;6053520;23;20035;-93
2022/07/05 20:39:49;;;;;;;33.33;31.02;;;;;;;25.56;100.00;100741.47;6052579;23;20097;-92
2022/07/05 20:42:17;;;;;;;27.92;26.00;;;;;;;25.47;100.00;100727.78;6051075;23;20099;-92
2022/07/05 20:44:46;;;;;;;27.60;25.20;;;;;;;25.28;100.00;100738.00;6048758;23;20024;-93
2022/07/05 20:47:13;;;;;;;27.75;25.65;;;;;;;25.33;100.00;100732.47;6049099;23;20022;-92
2022/07/05 20:49:40;;;;;;;27.35;25.30;;;;;;;25.59;100.00;100733.47;6049355;23;20027;-93
2022/07/05 20:52:07;;;;;;;25.10;23.10;;;;;;;25.51;100.00;100738.88;6050473;23;20023;-93
2022/07/05 20:54:38;;;;;;;25.95;23.83;;;;;;;25.71;100.00;100737.59;6055100;23;20457;-92
2022/07/05 20:57:07;;;;;;;25.20;23.13;;;;;;;25.74;100.00;100729.63;6053939;23;20022;-92
2022/07/05 20:59:33;;;;;;;25.58;23.40;;;;;;;25.73;100.00;100732.66;6043817;23;20019;-93
2022/07/05 21:02:00;;;;;;;25.75;24.00;;;;;;;25.70;100.00;100733.28;6042365;23;20098;-91
2022/07/05 21:04:30;;;;;;;26.00;23.92;;;;;;;25.58;100.00;100740.03;6042033;23;20021;-92
2022/07/05 21:06:57;;;;;;;26.15;23.88;;;;;;;25.56;100.00;100733.31;6042549;23;20031;-91
2022/07/05 21:09:28;;;;;;;26.80;24.80;;;;;;;25.52;100.00;100735.84;6045603;23;20035;-93
2022/07/05 21:11:57;;;;;;;29.23;26.92;;;;;;;25.45;100.00;100737.38;6062613;23;20024;-94
2022/07/05 21:14:24;;;;;;;27.67;25.98;;;;;;;25.07;100.00;100749.25;6066506;23;20035;-93
2022/07/05 21:16:51;;;;;;;27.90;25.80;;;;;;;25.17;100.00;100742.81;6066385;23;20041;-94
2022/07/05 21:19:18;;;;;;;25.40;23.60;;;;;;;25.24;100.00;100734.28;6066361;23;20046;-93
2022/07/05 21:21:45;;;;;;;30.38;27.95;;;;;;;25.18;100.00;100741.72;6066965;23;20004;-93
2022/07/05 21:24:18;;;;;;;32.47;30.20;;;;;;;25.05;100.00;100743.31;6042240;23;20079;-91
2022/07/05 21:26:46;;;;;;;30.55;28.55;;;;;;;24.92;100.00;100755.78;6064914;23;20019;-93
2022/07/05 21:29:22;;;;;;;28.48;26.48;;;;;;;24.92;100.00;100757.69;6064986;23;20003;-92
2022/07/05 21:31:49;;;;;;;30.13;27.73;;;;;;;24.84;100.00;100766.53;6065520;23;20003;-93
2022/07/05 21:34:16;;;;;;;27.55;25.40;;;;;;;24.85;100.00;100768.16;6066559;23;20030;-93
2022/07/05 21:36:43;;;;;;;26.80;24.90;;;;;;;24.90;100.00;100774.31;6066512;23;20033;-92
2022/07/05 21:39:11;;;;;;;26.30;24.35;;;;;;;24.85;100.00;100777.13;6065900;23;20035;-92
2022/07/05 21:41:38;;;;;;;28.35;26.42;;;;;;;24.89;100.00;100780.81;6065414;23;20015;-93
2022/07/05 21:44:05;;;;;;;27.52;25.58;;;;;;;25.00;100.00;100784.16;6065145;23;20019;-92
2022/07/05 21:46:35;;;;;;;28.30;26.33;;;;;;;25.13;100.00;100782.59;6065988;23;20071;-93
2022/07/05 21:49:05;;;;;;;26.15;24.25;;;;;;;25.26;100.00;100778.25;6066269;23;20078;-94
2022/07/05 21:51:33;;;;;;;27.67;25.67;;;;;;;25.26;100.00;100772.81;6066611;23;20023;-93
2022/07/05 21:54:05;;;;;;;27.73;25.48;;;;;;;25.20;100.00;100776.75;6066581;23;20003;-93
2022/07/05 21:56:32;;;;;;;28.23;26.33;;;;;;;25.15;100.00;100771.44;6066644;23;20027;-93
2022/07/05 22:04:34;;;;;;;29.98;27.92;;;;;;;25.40;100.00;100772.81;6065824;23;20084;-93
2022/07/05 22:07:05;;;;;;;36.17;34.28;;;;;;;25.14;100.00;100765.16;6065461;23;20031;-93
2022/07/05 22:09:37;;;;;;;28.90;26.70;;;;;;;25.24;100.00;100764.97;6065834;23;20062;-93
2022/07/05 22:12:08;;;;;;;40.17;37.97;;;;;;;25.09;100.00;100763.34;6065233;23;20015;-94
2022/07/05 22:14:36;;;;;;;38.33;36.22;;;;;;;25.25;100.00;100763.88;6066048;23;20023;-93
2022/07/05 22:17:14;;;;;;;50.72;48.00;;;;;;;25.34;100.00;100764.75;6065207;23;20027;-91
2022/07/05 22:19:46;;;;;;;33.67;31.58;;;;;;;25.27;100.00;100753.50;6065820;23;20007;-93
2022/07/05 22:22:13;;;;;;;36.10;33.88;;;;;;;25.17;100.00;100769.19;6065411;23;20011;-93
2022/07/05 22:24:40;;;;;;;61.88;58.35;;;;;;;24.74;100.00;100761.31;6065335;23;20013;-93
2022/07/05 22:27:07;;;;;;;40.28;37.53;;;;;;;24.79;100.00;100767.44;6065463;23;20015;-93
2022/07/05 22:29:34;;;;;;;34.92;32.30;;;;;;;24.95;100.00;100765.25;6065387;23;20030;-93
2022/07/05 22:32:06;;;;;;;36.15;33.95;;;;;;;24.82;100.00;100769.56;6065499;23;20020;-93
2022/07/05 22:34:33;;;;;;;41.25;38.83;;;;;;;24.88;100.00;100773.00;6065370;23;20027;-93
2022/07/05 22:37:04;;;;;;;37.60;35.40;;;;;;;24.89;100.00;100764.53;6065410;23;20027;-94
2022/07/05 22:39:32;;;;;;;34.50;32.40;;;;;;;24.82;100.00;100766.03;6066127;23;20013;-93
2022/07/05 22:42:01;;;;;;;35.75;33.63;;;;;;;24.72;100.00;100772.47;6065894;23;20003;-93
2022/07/05 22:44:28;;;;;;;41.55;38.80;;;;;;;24.77;100.00;100768.84;6064495;23;20043;-93
2022/07/05 22:46:58;;;;;;;40.85;38.53;;;;;;;24.82;100.00;100771.47;6063579;23;20034;-93
2022/07/05 22:49:27;;;;;;;39.30;37.03;;;;;;;24.69;100.00;100770.38;6064015;23;20047;-92
2022/07/05 22:51:54;;;;;;;41.35;39.08;;;;;;;24.72;100.00;100763.50;6065026;23;20023;-93
2022/07/05 22:54:20;;;;;;;36.30;33.75;;;;;;;24.85;100.00;100776.31;6064486;23;20035;-93
2022/07/05 22:56:49;;;;;;;38.40;36.10;;;;;;;24.79;100.00;100780.22;6065280;23;20045;-92
2022/07/05 22:59:18;;;;;;;38.22;35.83;;;;;;;24.83;100.00;100784.75;6064347;23;20042;-94
2022/07/05 23:01:45;;;;;;;38.65;36.13;;;;;;;24.85;100.00;100790.69;6064539;23;20007;-93
2022/07/05 23:04:14;;;;;;;32.65;30.60;;;;;;;24.93;100.00;100789.19;6065339;23;20011;-94
2022/07/05 23:06:51;;;;;;;35.00;32.75;;;;;;;24.86;100.00;100786.06;6065695;23;20031;-93
2022/07/05 23:09:18;;;;;;;32.80;30.75;;;;;;;24.85;100.00;100782.53;6064273;23;20019;-92
2022/07/05 23:11:47;;;;;;;35.03;32.60;;;;;;;24.89;100.00;100782.75;6065338;23;20018;-93
2022/07/05 23:14:14;;;;;;;29.25;27.25;;;;;;;24.98;100.00;100785.56;6063769;23;20573;-93
2022/07/05 23:16:42;;;;;;;32.88;30.73;;;;;;;24.83;100.00;100779.31;6064042;23;20015;-93
2022/07/05 23:19:09;;;;;;;28.02;25.98;;;;;;;24.76;100.00;100787.06;6064461;23;20035;-92
2022/07/05 23:21:36;;;;;;;32.28;30.08;;;;;;;24.82;100.00;100775.00;6064905;23;20031;-93
2022/07/05 23:26:52;;;;;;;29.15;27.15;;;;;;;24.55;100.00;100770.31;6065168;23;20029;-93
2022/07/05 23:29:19;;;;;;;30.75;28.55;;;;;;;24.52;100.00;100770.91;6064794;23;20038;-93
2022/07/05 23:31:47;;;;;;;30.13;28.08;;;;;;;24.53;100.00;100761.66;6064668;23;20003;-93
2022/07/05 23:34:16;;;;;;;34.25;32.20;;;;;;;24.51;100.00;100758.47;6066422;23;20011;-93
2022/07/05 23:36:45;;;;;;;34.45;32.50;;;;;;;24.46;100.00;100753.09;6066710;23;20028;-93
2022/07/05 23:39:15;;;;;;;35.05;32.45;;;;;;;24.39;100.00;100760.81;6066348;23;20030;-93
2022/07/05 23:41:42;;;;;;;34.50;32.17;;;;;;;24.35;100.00;100755.16;6066776;23;20039;-93
2022/07/05 23:44:10;;;;;;;34.60;32.50;;;;;;;24.27;100.00;100753.13;6066287;23;20046;-93
2022/07/05 23:46:37;;;;;;;36.55;34.25;;;;;;;24.18;100.00;100752.19;6066637;23;20007;-94
2022/07/05 23:49:04;;;;;;;35.40;33.30;;;;;;;24.32;100.00;100763.09;6067028;23;20035;-94
2022/07/05 23:51:36;;;;;;;32.50;30.40;;;;;;;24.32;100.00;100760.38;6067721;23;20063;-93
2022/07/05 23:54:03;;;;;;;33.55;31.45;;;;;;;24.33;100.00;100767.44;6066999;23;20035;-94
2022/07/05 23:56:32;;;;;;;31.27;28.88;;;;;;;23.63;100.00;100765.44;6066744;23;20071;-94
2022/07/05 23:58:59;;;;;;;34.13;32.03;;;;;;;23.43;100.00;100778.19;6064876;23;20035;-93
